createdAt,value
2018-03-25T00:01:51.509Z,25.23
2018-03-25T00:04:20.381Z,24.27
2018-03-25T00:06:50.931Z,25.30
2018-03-25T00:09:20.259Z,23.37
2018-03-25T00:11:49.185Z,26.77
2018-03-25T00:14:18.026Z,23.77
2018-03-25T00:16:46.907Z,24.20
2018-03-25T00:19:16.680Z,25.13
2018-03-25T00:21:46.443Z,25.60
2018-03-25T00:24:15.311Z,23.33
2018-03-25T00:26:44.993Z,23.23
2018-03-25T00:29:13.845Z,24.67
2018-03-25T00:31:43.568Z,23.37
2018-03-25T00:34:12.423Z,23.57
2018-03-25T00:36:41.262Z,23.57
2018-03-25T00:39:10.911Z,23.67
2018-03-25T00:41:39.764Z,24.50
2018-03-25T00:44:08.630Z,23.33
2018-03-25T00:46:37.510Z,23.87
2018-03-25T00:49:06.351Z,25.07
2018-03-25T00:51:35.239Z,22.60
2018-03-25T00:54:04.145Z,24.50
2018-03-25T00:56:33.011Z,22.70
2018-03-25T00:59:01.909Z,24.83
2018-03-25T01:01:31.268Z,22.23
2018-03-25T01:04:00.124Z,23.07
2018-03-25T01:06:28.995Z,23.23
2018-03-25T01:08:57.885Z,24.53
2018-03-25T01:11:26.717Z,23.53
2018-03-25T01:13:55.584Z,23.10
2018-03-25T01:16:24.460Z,24.17
2018-03-25T01:18:53.306Z,22.50
2018-03-25T01:21:22.297Z,22.43
2018-03-25T01:23:51.318Z,25.23
2018-03-25T01:26:20.183Z,21.93
2018-03-25T01:28:49.039Z,22.77
2018-03-25T01:31:17.917Z,23.73
2018-03-25T01:33:46.776Z,23.00
2018-03-25T01:36:15.660Z,21.67
2018-03-25T01:38:44.544Z,25.73
2018-03-25T01:41:13.382Z,22.27
2018-03-25T01:43:42.244Z,22.87
2018-03-25T01:46:11.119Z,22.17
2018-03-25T01:48:39.960Z,22.10
2018-03-25T01:51:09.966Z,22.47
2018-03-25T01:53:38.847Z,21.50
2018-03-25T01:56:07.676Z,20.77
2018-03-25T01:58:36.543Z,22.73
2018-03-25T02:01:05.437Z,22.57
2018-03-25T02:03:34.324Z,22.50
2018-03-25T02:06:03.260Z,24.73
2018-03-25T02:08:32.184Z,21.53
2018-03-25T02:11:01.026Z,24.17
2018-03-25T02:13:29.917Z,22.60
2018-03-25T02:15:58.778Z,23.43
2018-03-25T02:18:27.628Z,20.70
2018-03-25T02:20:56.588Z,21.87
2018-03-25T02:23:25.448Z,22.50
2018-03-25T02:25:54.342Z,21.27
2018-03-25T02:28:23.256Z,21.37
2018-03-25T02:30:52.170Z,22.50
2018-03-25T02:33:21.035Z,22.17
2018-03-25T02:35:49.888Z,22.40
2018-03-25T02:38:19.840Z,26.33
2018-03-25T02:40:52.200Z,24.60
2018-03-25T02:43:21.066Z,21.07
2018-03-25T02:45:49.976Z,22.67
2018-03-25T02:48:18.818Z,22.57
2018-03-25T02:50:47.692Z,21.70
2018-03-25T02:53:16.557Z,22.10
2018-03-25T02:55:45.418Z,21.83
2018-03-25T02:58:14.273Z,21.27
2018-03-25T03:00:43.119Z,21.87
2018-03-25T03:03:11.969Z,21.10
2018-03-25T03:05:40.879Z,22.20
2018-03-25T03:08:10.966Z,24.50
2018-03-25T03:10:39.802Z,22.70
2018-03-25T03:13:08.655Z,21.67
2018-03-25T03:15:37.716Z,21.57
2018-03-25T03:18:06.579Z,20.40
2018-03-25T03:20:35.580Z,21.17
2018-03-25T03:23:04.414Z,20.23
2018-03-25T03:25:33.252Z,23.33
2018-03-25T03:28:02.113Z,21.03
2018-03-25T03:30:30.964Z,20.93
2018-03-25T03:32:59.813Z,20.83
2018-03-25T03:35:28.681Z,21.97
2018-03-25T03:37:57.522Z,20.47
2018-03-25T03:40:26.356Z,20.97
2018-03-25T03:42:55.256Z,21.87
2018-03-25T03:45:24.090Z,22.50
2018-03-25T03:47:53.596Z,20.73
2018-03-25T03:50:22.446Z,21.30
2018-03-25T03:52:52.086Z,21.47
2018-03-25T03:55:20.922Z,21.23
2018-03-25T03:57:50.588Z,23.67
2018-03-25T04:00:19.555Z,23.87
2018-03-25T04:02:48.394Z,22.57
2018-03-25T04:05:17.361Z,20.40
2018-03-25T04:07:46.231Z,23.40
2018-03-25T04:10:15.068Z,22.67
2018-03-25T04:12:43.942Z,22.23
2018-03-25T04:15:12.787Z,21.03
2018-03-25T04:17:41.661Z,20.83
2018-03-25T04:20:11.120Z,19.90
2018-03-25T04:22:39.957Z,21.03
2018-03-25T04:25:09.110Z,21.73
2018-03-25T04:27:37.982Z,22.30
2018-03-25T04:30:06.859Z,21.07
2018-03-25T04:32:35.701Z,20.67
2018-03-25T04:35:04.594Z,19.77
2018-03-25T04:37:33.449Z,20.70
2018-03-25T04:40:02.319Z,19.60
2018-03-25T04:42:31.207Z,20.03
2018-03-25T04:45:00.051Z,20.70
2018-03-25T04:47:29.604Z,20.40
2018-03-25T04:49:58.468Z,20.87
2018-03-25T04:52:27.349Z,20.43
2018-03-25T04:54:56.253Z,19.33
2018-03-25T04:57:25.104Z,19.87
2018-03-25T04:59:53.956Z,20.97
2018-03-25T05:02:22.791Z,19.97
2018-03-25T05:04:51.909Z,20.77
2018-03-25T05:07:20.809Z,21.83
2018-03-25T05:09:50.711Z,21.10
2018-03-25T05:12:19.599Z,20.57
2018-03-25T05:14:49.058Z,21.53
2018-03-25T05:17:17.935Z,18.93
2018-03-25T05:19:46.806Z,19.60
2018-03-25T05:22:15.655Z,20.20
2018-03-25T05:24:45.107Z,20.50
2018-03-25T05:27:14.005Z,22.13
2018-03-25T05:29:42.849Z,19.57
2018-03-25T05:32:11.718Z,19.20
2018-03-25T05:34:40.610Z,20.03
2018-03-25T05:37:10.193Z,18.90
2018-03-25T05:39:39.035Z,18.93
2018-03-25T05:42:07.939Z,20.63
2018-03-25T05:44:36.774Z,19.10
2018-03-25T05:47:05.683Z,19.70
2018-03-25T05:49:34.555Z,19.43
2018-03-25T05:52:03.403Z,19.83
2018-03-25T05:54:32.261Z,18.63
2018-03-25T05:57:01.121Z,19.97
2018-03-25T05:59:30.014Z,19.17
2018-03-25T06:01:58.821Z,19.20
2018-03-25T06:04:28.995Z,20.03
2018-03-25T06:06:57.832Z,22.57
2018-03-25T06:09:26.675Z,19.17
2018-03-25T06:11:55.619Z,20.60
2018-03-25T06:14:24.477Z,20.37
2018-03-25T06:16:54.271Z,19.40
2018-03-25T06:19:23.223Z,21.73
2018-03-25T06:21:52.087Z,21.37
2018-03-25T06:24:20.962Z,23.40
2018-03-25T06:26:49.827Z,22.43
2018-03-25T06:29:18.687Z,25.10
2018-03-25T06:31:48.263Z,26.33
2018-03-25T06:34:17.218Z,26.40
2018-03-25T06:39:22.139Z,26.63
2018-03-25T06:41:51.872Z,26.87
2018-03-25T06:44:20.743Z,27.37
2018-03-25T06:46:51.291Z,27.03
2018-03-25T06:49:20.133Z,26.47
2018-03-25T06:51:49.001Z,27.20
2018-03-25T06:54:17.896Z,27.13
2018-03-25T06:56:46.747Z,28.53
2018-03-25T06:59:15.615Z,28.70
2018-03-25T07:01:44.473Z,26.03
2018-03-25T07:04:14.273Z,27.50
2018-03-25T07:06:43.151Z,27.77
2018-03-25T07:09:12.017Z,27.97
2018-03-25T07:11:40.891Z,29.60
2018-03-25T07:14:10.193Z,28.97
2018-03-25T07:16:39.035Z,26.97
2018-03-25T07:19:07.879Z,27.90
2018-03-25T07:21:36.735Z,28.40
2018-03-25T07:24:05.627Z,30.10
2018-03-25T07:26:34.478Z,29.33
2018-03-25T07:29:03.357Z,28.47
2018-03-25T07:31:32.203Z,28.00
2018-03-25T07:34:01.071Z,29.57
2018-03-25T07:36:31.707Z,29.93
2018-03-25T07:39:00.592Z,30.27
2018-03-25T07:41:30.326Z,29.37
2018-03-25T07:43:59.201Z,28.40
2018-03-25T07:46:28.305Z,27.90
2018-03-25T07:48:57.984Z,28.73
2018-03-25T07:51:26.857Z,29.30
2018-03-25T07:53:56.513Z,27.03
2018-03-25T07:56:25.369Z,26.90
2018-03-25T07:58:54.322Z,27.97
2018-03-25T08:01:23.164Z,27.57
2018-03-25T08:03:52.091Z,26.83
2018-03-25T08:06:20.960Z,27.63
2018-03-25T08:08:49.844Z,27.00
2018-03-25T08:11:18.687Z,26.13
2018-03-25T08:13:49.322Z,27.27
2018-03-25T08:16:18.184Z,25.33
2018-03-25T08:18:47.086Z,25.13
2018-03-25T08:21:15.997Z,23.63
2018-03-25T08:23:44.849Z,25.53
2018-03-25T08:26:16.446Z,23.97
2018-03-25T08:28:48.945Z,23.50
2018-03-25T08:31:18.421Z,23.97
2018-03-25T08:33:47.338Z,23.53
2018-03-25T08:36:16.184Z,24.40
2018-03-25T08:38:45.133Z,23.93
2018-03-25T08:41:13.999Z,24.30
2018-03-25T08:43:42.853Z,21.43
2018-03-25T08:46:13.055Z,22.77
2018-03-25T08:48:41.958Z,21.73
2018-03-25T08:51:11.084Z,22.57
2018-03-25T08:53:40.015Z,22.47
2018-03-25T08:56:09.396Z,20.33
2018-03-25T08:58:38.261Z,20.93
2018-03-25T09:01:07.701Z,20.90
2018-03-25T09:03:36.565Z,20.30
2018-03-25T09:06:05.479Z,20.07
2018-03-25T09:08:34.381Z,19.47
2018-03-25T09:11:03.248Z,20.53
2018-03-25T09:13:32.105Z,21.30
2018-03-25T09:16:01.890Z,21.93
2018-03-25T09:18:31.558Z,20.83
2018-03-25T09:21:00.419Z,21.93
2018-03-25T09:23:29.387Z,22.23
2018-03-25T09:25:58.231Z,21.87
2018-03-25T09:28:27.091Z,21.37
2018-03-25T09:30:55.981Z,21.70
2018-03-25T09:33:24.829Z,20.43
2018-03-25T09:35:53.718Z,19.70
2018-03-25T09:38:22.595Z,19.63
2018-03-25T09:40:51.447Z,19.67
2018-03-25T09:43:20.323Z,19.53
2018-03-25T09:45:49.243Z,20.00
2018-03-25T09:48:18.055Z,19.20
2018-03-25T09:50:46.909Z,19.93
2018-03-25T09:53:15.775Z,18.70
2018-03-25T09:55:44.645Z,20.27
2018-03-25T09:58:13.504Z,19.73
2018-03-25T10:00:42.387Z,19.77
2018-03-25T10:03:30.981Z,20.17
2018-03-25T10:05:59.852Z,19.57
2018-03-25T10:08:28.983Z,18.40
2018-03-25T10:10:57.847Z,18.67
2018-03-25T10:13:26.730Z,20.00
2018-03-25T10:15:55.578Z,17.10
2018-03-25T10:18:24.428Z,17.10
2018-03-25T10:20:53.343Z,16.53
2018-03-25T10:23:22.195Z,17.80
2018-03-25T10:25:51.042Z,18.60
2018-03-25T10:28:19.908Z,18.17
2018-03-25T10:30:49.420Z,19.17
2018-03-25T10:33:18.353Z,18.03
2018-03-25T10:35:47.222Z,18.07
2018-03-25T10:38:16.069Z,17.40
2018-03-25T10:40:44.932Z,17.93
2018-03-25T10:43:13.814Z,17.90
2018-03-25T10:45:42.676Z,16.83
2018-03-25T10:48:12.331Z,18.03
2018-03-25T10:50:41.212Z,17.20
2018-03-25T10:53:13.084Z,17.83
2018-03-25T10:55:41.965Z,17.73
2018-03-25T10:58:11.038Z,18.23
2018-03-25T11:00:40.233Z,18.30
2018-03-25T11:05:44.391Z,17.97
2018-03-25T11:08:13.289Z,17.37
2018-03-25T11:10:42.156Z,18.20
2018-03-25T11:13:11.032Z,17.47
2018-03-25T11:15:40.010Z,18.00
2018-03-25T11:18:08.914Z,17.50
2018-03-25T11:20:37.946Z,17.33
2018-03-25T11:23:07.031Z,19.00
2018-03-25T11:25:35.934Z,17.97
2018-03-25T11:28:04.918Z,17.70
2018-03-25T11:30:33.844Z,18.50
2018-03-25T11:33:02.740Z,17.83
2018-03-25T11:35:32.539Z,18.77
2018-03-25T11:38:01.576Z,19.60
2018-03-25T11:40:30.533Z,18.57
2018-03-25T11:42:59.452Z,18.03
2018-03-25T11:45:28.328Z,18.67
2018-03-25T11:47:57.255Z,18.60
2018-03-25T11:50:26.128Z,17.77
2018-03-25T11:52:55.020Z,18.70
2018-03-25T11:55:23.891Z,18.00
2018-03-25T11:57:53.269Z,18.00
2018-03-25T12:00:22.148Z,17.90
2018-03-25T12:02:51.686Z,18.97
2018-03-25T12:05:21.207Z,18.67
2018-03-25T12:07:50.096Z,17.63
2018-03-25T12:10:19.222Z,17.87
2018-03-25T12:12:48.545Z,19.33
2018-03-25T12:15:17.440Z,19.63
2018-03-25T12:17:46.276Z,20.03
2018-03-25T12:20:15.139Z,19.83
2018-03-25T12:22:44.045Z,19.70
2018-03-25T12:25:12.904Z,20.50
2018-03-25T12:27:41.775Z,19.73
2018-03-25T12:30:11.320Z,20.87
2018-03-25T12:32:40.232Z,20.37
2018-03-25T12:35:09.156Z,20.37
2018-03-25T12:37:38.050Z,21.53
2018-03-25T12:40:06.887Z,21.33
2018-03-25T12:42:35.764Z,23.40
2018-03-25T12:45:04.674Z,22.57
2018-03-25T12:47:34.436Z,22.57
2018-03-25T12:50:03.350Z,21.47
2018-03-25T12:52:32.245Z,22.17
2018-03-25T12:55:01.136Z,22.20
2018-03-25T12:57:30.372Z,22.13
2018-03-25T12:59:59.230Z,23.00
2018-03-25T13:02:28.450Z,22.27
2018-03-25T13:04:57.439Z,23.40
2018-03-25T13:07:26.352Z,23.20
2018-03-25T13:09:55.189Z,23.30
2018-03-25T13:12:24.044Z,22.17
2018-03-25T13:14:53.000Z,22.10
2018-03-25T13:17:22.566Z,23.70
2018-03-25T13:19:52.302Z,22.13
2018-03-25T13:22:21.198Z,22.67
2018-03-25T13:24:50.078Z,22.07
2018-03-25T13:27:18.928Z,22.43
2018-03-25T13:29:47.837Z,21.40
2018-03-25T13:32:16.736Z,21.83
2018-03-25T13:34:46.424Z,19.40
2018-03-25T13:37:15.280Z,20.97
2018-03-25T13:39:44.151Z,20.30
2018-03-25T13:42:13.470Z,20.10
2018-03-25T13:44:42.346Z,19.53
2018-03-25T13:47:11.208Z,18.47
2018-03-25T13:49:40.114Z,17.90
2018-03-25T13:52:09.087Z,16.17
2018-03-25T13:54:37.964Z,17.10
2018-03-25T13:57:08.608Z,17.90
2018-03-25T13:59:37.499Z,16.67
2018-03-25T14:02:06.365Z,16.63
2018-03-25T14:04:35.298Z,16.43
2018-03-25T14:07:04.236Z,16.63
2018-03-25T14:09:33.072Z,16.97
2018-03-25T14:12:02.956Z,15.60
2018-03-25T14:14:31.842Z,16.03
2018-03-25T14:17:00.753Z,15.90
2018-03-25T14:19:29.602Z,15.87
2018-03-25T14:21:58.927Z,16.07
2018-03-25T14:24:27.800Z,16.60
2018-03-25T14:26:56.682Z,17.13
2018-03-25T14:29:25.572Z,16.90
2018-03-25T14:31:54.474Z,17.23
2018-03-25T14:34:23.876Z,16.73
2018-03-25T14:36:55.512Z,17.83
2018-03-25T14:39:24.366Z,17.87
2018-03-25T14:41:53.980Z,16.77
2018-03-25T14:44:23.710Z,16.20
2018-03-25T14:46:53.540Z,16.47
2018-03-25T14:49:22.901Z,17.23
2018-03-25T14:51:52.866Z,17.33
2018-03-25T14:54:21.748Z,18.13
2018-03-25T14:56:51.310Z,17.57
2018-03-25T14:59:20.389Z,16.17
2018-03-25T15:01:49.712Z,16.73
2018-03-25T15:04:18.779Z,16.47
2018-03-25T15:06:47.856Z,16.80
2018-03-25T15:09:16.748Z,18.10
2018-03-25T15:11:45.792Z,17.87
2018-03-25T15:14:14.880Z,16.80
2018-03-25T15:16:44.696Z,18.00
2018-03-25T15:19:14.240Z,18.23
2018-03-25T15:21:43.387Z,17.27
2018-03-25T15:24:12.470Z,17.87
2018-03-25T15:26:41.385Z,18.27
2018-03-25T15:29:16.041Z,18.17
2018-03-25T15:31:45.784Z,18.20
2018-03-25T15:34:14.787Z,17.67
2018-03-25T15:36:45.472Z,18.37
2018-03-25T15:39:14.532Z,18.43
2018-03-25T15:41:43.721Z,19.47
2018-03-25T15:44:12.598Z,18.43
2018-03-25T15:46:41.601Z,18.43
2018-03-25T15:49:10.494Z,19.83
2018-03-25T15:51:39.371Z,19.67
2018-03-25T15:54:09.265Z,19.53
2018-03-25T15:56:38.379Z,18.70
2018-03-25T15:59:07.500Z,18.73
2018-03-25T16:01:36.632Z,20.27
2018-03-25T16:04:05.551Z,18.90
2018-03-25T16:06:34.566Z,18.83
2018-03-25T16:09:03.444Z,19.07
2018-03-25T16:11:32.449Z,18.27
2018-03-25T16:14:01.399Z,18.83
2018-03-25T16:16:30.291Z,19.13
2018-03-25T16:18:59.812Z,18.57
2018-03-25T16:21:29.761Z,19.60
2018-03-25T16:23:58.631Z,19.57
2018-03-25T16:26:27.564Z,19.17
2018-03-25T16:28:56.719Z,19.67
2018-03-25T16:31:25.721Z,21.43
2018-03-25T16:33:54.575Z,19.67
2018-03-25T16:36:23.460Z,20.80
2018-03-25T16:38:52.307Z,21.10
2018-03-25T16:41:21.584Z,21.53
2018-03-25T16:43:51.164Z,23.80
2018-03-25T16:46:20.077Z,22.43
2018-03-25T16:48:49.607Z,23.27
2018-03-25T16:51:18.895Z,24.23
2018-03-25T16:53:48.123Z,33.63
2018-03-25T16:56:17.663Z,24.30
2018-03-25T16:58:46.623Z,23.70
2018-03-25T17:01:15.591Z,22.87
2018-03-25T17:03:45.159Z,21.63
2018-03-25T17:06:14.097Z,19.97
2018-03-25T17:08:42.979Z,21.87
2018-03-25T17:11:11.821Z,22.73
2018-03-25T17:13:40.719Z,22.97
2018-03-25T17:16:09.715Z,22.33
2018-03-25T17:18:38.579Z,22.40
2018-03-25T17:21:07.455Z,21.13
2018-03-25T17:23:36.291Z,22.20
2018-03-25T17:26:05.199Z,20.90
2018-03-25T17:28:34.104Z,22.10
2018-03-25T17:31:03.002Z,20.73
2018-03-25T17:33:32.780Z,23.03
2018-03-25T17:36:01.775Z,23.57
2018-03-25T17:38:31.334Z,22.60
2018-03-25T17:41:02.823Z,22.47
2018-03-25T17:43:31.845Z,23.60
2018-03-25T17:46:00.884Z,20.37
2018-03-25T17:48:31.075Z,22.27
2018-03-25T17:51:00.039Z,21.53
2018-03-25T17:53:29.786Z,22.37
2018-03-25T17:55:58.984Z,22.37
2018-03-25T17:58:27.856Z,20.47
2018-03-25T18:00:56.927Z,20.87
2018-03-25T18:03:26.014Z,21.60
2018-03-25T18:05:55.143Z,21.43
2018-03-25T18:11:00.090Z,21.43
2018-03-25T18:13:32.440Z,20.80
2018-03-25T18:16:01.919Z,21.40
2018-03-25T18:18:31.785Z,19.07
2018-03-25T18:21:00.650Z,20.00
2018-03-25T18:23:29.617Z,21.60
2018-03-25T18:25:58.536Z,21.03
2018-03-25T18:28:27.413Z,22.03
2018-03-25T18:30:56.488Z,21.67
2018-03-25T18:33:25.650Z,22.83
2018-03-25T18:35:54.570Z,22.33
2018-03-25T18:38:23.505Z,22.47
2018-03-25T18:40:52.407Z,22.87
2018-03-25T18:43:21.406Z,22.67
2018-03-25T18:45:50.828Z,24.50
2018-03-25T18:48:19.688Z,24.23
2018-03-25T18:50:48.808Z,26.13
2018-03-25T18:53:17.763Z,22.53
2018-03-25T18:55:47.408Z,22.57
2018-03-25T18:58:16.296Z,24.47
2018-03-25T19:00:45.422Z,26.73
2018-03-25T19:03:14.404Z,26.23
2018-03-25T19:05:43.992Z,25.53
2018-03-25T19:08:15.118Z,22.73
2018-03-25T19:10:45.020Z,25.20
2018-03-25T19:13:13.918Z,27.33
2018-03-25T19:15:43.708Z,23.67
2018-03-25T19:18:13.504Z,23.10
2018-03-25T19:20:42.920Z,28.37
2018-03-25T19:23:11.856Z,27.70
2018-03-25T19:25:40.760Z,27.03
2018-03-25T19:28:11.444Z,28.27
2018-03-25T19:30:41.444Z,28.63
2018-03-25T19:33:12.103Z,26.63
2018-03-25T19:35:41.151Z,27.07
2018-03-25T19:38:11.334Z,27.17
2018-03-25T19:40:40.461Z,26.43
2018-03-25T19:43:10.244Z,28.60
2018-03-25T19:45:39.198Z,24.87
2018-03-25T19:48:08.412Z,28.67
2018-03-25T19:50:37.281Z,27.80
2018-03-25T19:53:06.170Z,28.93
2018-03-25T19:55:38.022Z,28.27
2018-03-25T19:58:08.134Z,24.60
2018-03-25T20:00:38.664Z,28.40
2018-03-25T20:03:09.262Z,25.47
2018-03-25T20:05:39.948Z,26.50
2018-03-25T20:08:09.092Z,25.57
2018-03-25T20:10:40.602Z,25.40
2018-03-25T20:13:16.622Z,25.60
2018-03-25T20:15:46.955Z,23.87
2018-03-25T20:18:30.878Z,24.50
2018-03-25T20:21:02.830Z,29.83
2018-03-25T20:23:32.239Z,40.57
2018-03-25T20:26:01.187Z,24.07
2018-03-25T20:28:30.032Z,20.80
2018-03-25T20:30:58.882Z,23.37
2018-03-25T20:33:27.718Z,21.67
2018-03-25T20:35:57.502Z,21.40
2018-03-25T20:38:26.382Z,20.27
2018-03-25T20:40:55.229Z,19.00
2018-03-25T20:43:24.096Z,19.47
2018-03-25T20:45:53.542Z,20.00
2018-03-25T20:48:22.387Z,17.13
2018-03-25T20:50:51.238Z,15.80
2018-03-25T20:53:20.160Z,14.50
2018-03-25T20:55:49.555Z,14.10
2018-03-25T20:58:18.432Z,14.10
2018-03-25T21:00:47.602Z,14.67
2018-03-25T21:03:16.494Z,13.77
2018-03-25T21:05:45.378Z,14.03
2018-03-25T21:08:14.876Z,13.37
2018-03-25T21:10:43.726Z,13.40
2018-03-25T21:13:12.656Z,14.37
2018-03-25T21:15:41.548Z,13.43
2018-03-25T21:18:10.426Z,12.87
2018-03-25T21:20:39.324Z,13.07
2018-03-25T21:23:08.188Z,12.63
2018-03-25T21:25:38.300Z,12.37
2018-03-25T21:28:07.166Z,12.83
2018-03-25T21:30:36.082Z,11.30
2018-03-25T21:33:04.928Z,12.10
2018-03-25T21:35:33.936Z,11.83
2018-03-25T21:38:02.926Z,11.20
2018-03-25T21:40:31.782Z,10.77
2018-03-25T21:43:00.646Z,9.73
2018-03-25T21:45:33.078Z,11.43
2018-03-25T21:48:01.966Z,10.60
2018-03-25T21:50:30.964Z,9.07
2018-03-25T21:53:00.578Z,9.83
2018-03-25T21:55:29.810Z,9.37
2018-03-25T21:57:58.688Z,10.10
2018-03-25T22:00:27.524Z,9.20
2018-03-25T22:02:56.441Z,9.70
2018-03-25T22:05:25.288Z,8.20
2018-03-25T22:07:54.192Z,9.33
2018-03-25T22:10:23.442Z,10.10
2018-03-25T22:12:52.291Z,9.13
2018-03-25T22:15:21.157Z,9.90
2018-03-25T22:17:50.688Z,9.63
2018-03-25T22:20:19.598Z,8.97
2018-03-25T22:22:49.044Z,8.90
2018-03-25T22:25:18.128Z,13.27
2018-03-25T22:27:47.830Z,12.23
2018-03-25T22:30:16.725Z,15.67
2018-03-25T22:32:46.508Z,12.00
2018-03-25T22:35:16.177Z,13.63
2018-03-25T22:37:45.028Z,8.27
2018-03-25T22:40:13.884Z,12.33
2018-03-25T22:42:42.740Z,9.33
2018-03-25T22:45:11.596Z,12.17
2018-03-25T22:47:40.448Z,9.00
2018-03-25T22:50:10.146Z,9.50
2018-03-25T22:52:38.990Z,8.37
2018-03-25T22:55:07.882Z,8.03
2018-03-25T22:57:36.736Z,8.03
2018-03-25T23:00:05.603Z,9.37
2018-03-25T23:02:34.450Z,8.93
2018-03-25T23:05:03.322Z,9.43
2018-03-25T23:07:33.076Z,9.50
2018-03-25T23:10:01.928Z,8.40
2018-03-25T23:12:31.610Z,8.90
2018-03-25T23:15:00.472Z,9.13
2018-03-25T23:17:30.280Z,8.97
2018-03-25T23:19:59.140Z,8.97
2018-03-25T23:22:27.980Z,9.03
2018-03-25T23:24:57.558Z,9.13
2018-03-25T23:27:26.458Z,8.60
2018-03-25T23:29:55.345Z,9.53
2018-03-25T23:32:24.227Z,9.37
2018-03-25T23:34:53.094Z,9.80
2018-03-25T23:37:22.678Z,10.20
2018-03-25T23:39:52.292Z,10.13
2018-03-25T23:42:21.204Z,10.17
2018-03-25T23:44:50.048Z,9.97
2018-03-25T23:47:19.484Z,9.93
2018-03-25T23:49:48.340Z,10.33
2018-03-25T23:52:17.183Z,10.33
2018-03-25T23:54:46.036Z,10.20
2018-03-25T23:57:14.896Z,9.90
2018-03-25T23:59:43.722Z,9.77
